White Deer, Texas
Current Conditions -  °F | °C
As of 10:15 AM on Saturday 20 Dec 2014 (Local Time) from KPPA Reporting Station
Haze Haze  
Wind Chill: 30°   Ceiling: 400
Heat Index: 36°   Visibility: 5mi
Dew Point: 33°   Wind: 7mph
Humidity: 89%   Direction: 220°SW
Pressure: 30.13"   Gusts: NA
Location:  35.44°N, 101.17°W
Report Text: KPPA 201615Z AUTO 22006KT 5SM BR OVC004 02/01 A3013 RMK AO2 T00220006 PNO
Loading
Personal Weather Stations






























Interactive Weather Map New forecast layout! Learn more

10-Day Weather Forecast

Advertisements
Track Severe Weather on mobile